Time;durP1;ratioP1;P1;durP2;ratioP2;P2;SDS_P1;SDS_P2;PMS_P1;PMS_P2;Temp;Humidity;BMP_temperature;BMP_pressure;BME280_temperature;BME280_humidity;BME280_pressure;Samples;Min_cycle;Max_cycle;Signal;HPM_P1;HPM_P2
2021/10/28 00:14:27;;;;;;;;;7.75;7.75;;;;;20.51;47.83;101404.53;5021737;28;45844;-60
2021/10/28 00:16:55;;;;;;;;;11.00;9.00;;;;;20.52;48.15;101397.50;5021989;28;45349;-60
2021/10/28 00:19:21;;;;;;;;;10.00;7.75;;;;;20.50;48.41;101394.97;5022214;28;45269;-60
2021/10/28 00:21:47;;;;;;;;;9.25;8.00;;;;;20.49;48.37;101387.97;5021679;28;45441;-60
2021/10/28 00:24:14;;;;;;;;;14.00;10.75;;;;;20.51;47.90;101390.53;5021740;28;45306;-60
2021/10/28 00:26:42;;;;;;;;;10.00;10.00;;;;;20.50;48.23;101379.16;5022128;28;45402;-60
2021/10/28 00:29:09;;;;;;;;;12.25;10.25;;;;;20.50;48.23;101378.28;5021855;28;45468;-60
2021/10/28 00:31:38;;;;;;;;;10.00;8.00;;;;;20.50;47.75;101373.03;5021700;28;46620;-60
2021/10/28 00:34:07;;;;;;;;;11.00;9.50;;;;;20.50;47.94;101367.75;5021804;28;45951;-61
2021/10/28 00:36:33;;;;;;;;;9.75;9.50;;;;;20.50;48.27;101362.50;5022009;28;45404;-60
2021/10/28 00:38:58;;;;;;;;;12.75;10.25;;;;;20.49;48.05;101366.91;5018780;28;45345;-60
2021/10/28 00:41:25;;;;;;;;;10.00;8.00;;;;;20.50;47.77;101367.75;5018254;28;46563;-61
2021/10/28 00:43:55;;;;;;;;;9.00;9.00;;;;;20.49;48.22;101364.28;5018300;28;45993;-59
2021/10/28 00:46:23;;;;;;;;;11.25;11.25;;;;;20.49;48.28;101363.41;5018358;28;45587;-60
2021/10/28 00:48:49;;;;;;;;;9.75;8.25;;;;;20.49;47.71;101360.78;5018735;28;45527;-60
2021/10/28 00:51:19;;;;;;;;;10.75;8.25;;;;;20.48;48.07;101359.06;5017996;28;46098;-62
2021/10/28 00:53:44;;;;;;;;;11.75;9.75;;;;;20.48;47.66;101353.81;5018356;28;45341;-61
2021/10/28 00:56:10;;;;;;;;;13.75;11.25;;;;;20.47;47.99;101357.34;5018396;28;45371;-60
2021/10/28 00:58:35;;;;;;;;;9.50;9.25;;;;;20.45;47.75;101344.28;5018555;28;45717;-60
2021/10/28 01:01:03;;;;;;;;;12.50;11.50;;;;;20.46;48.13;101351.25;5018249;28;45400;-60
2021/10/28 01:03:29;;;;;;;;;14.00;11.25;;;;;20.46;48.27;101351.25;5017872;28;45937;-60
2021/10/28 01:05:55;;;;;;;;;9.25;9.25;;;;;20.44;48.24;101342.56;5000400;28;45420;-60
2021/10/28 01:08:21;;;;;;;;;12.50;11.00;;;;;20.45;47.94;101346.06;5018147;28;45599;-61
2021/10/28 01:10:48;;;;;;;;;10.75;9.50;;;;;20.44;47.86;101332.03;5017467;28;46419;-60
2021/10/28 01:13:15;;;;;;;;;8.00;8.00;;;;;20.47;47.60;101344.19;5017937;28;45841;-60
2021/10/28 01:15:41;;;;;;;;;10.00;8.75;;;;;20.45;48.13;101335.53;5000300;28;45204;-60
2021/10/28 01:18:13;;;;;;;;;13.50;13.00;;;;;20.47;47.98;101341.56;5018282;28;45646;-60
2021/10/28 01:20:39;;;;;;;;;9.25;8.00;;;;;20.44;47.73;101336.47;4999878;28;48016;-60
2021/10/28 01:23:06;;;;;;;;;10.00;9.75;;;;;20.44;47.95;101326.75;5018209;28;45390;-59
2021/10/28 01:25:32;;;;;;;;;11.25;10.25;;;;;20.43;47.64;101324.22;5017992;28;45454;-60
2021/10/28 01:27:58;;;;;;;;;9.50;9.50;;;;;20.44;47.75;101332.03;5018091;28;45843;-60
2021/10/28 01:30:24;;;;;;;;;8.25;8.25;;;;;20.45;48.03;101338.16;5017514;28;45353;-60
2021/10/28 01:32:49;;;;;;;;;10.00;9.00;;;;;20.37;48.08;101314.81;4999700;28;45448;-60
2021/10/28 01:35:14;;;;;;;;;10.25;8.50;;;;;20.44;47.92;101321.50;5017686;28;45399;-59
2021/10/28 01:37:42;;;;;;;;;10.00;10.00;;;;;20.44;48.07;101307.50;5017567;28;45533;-60
2021/10/28 01:40:08;;;;;;;;;11.00;8.00;;;;;20.44;47.64;101310.13;5017617;28;47315;-60
2021/10/28 01:42:34;;;;;;;;;9.00;8.75;;;;;20.43;48.02;101303.16;5017669;28;45372;-59
2021/10/28 01:45:00;;;;;;;;;8.50;8.00;;;;;20.42;47.56;101309.34;5017557;28;45414;-59
2021/10/28 01:47:25;;;;;;;;;8.25;7.00;;;;;20.41;48.08;101303.19;5017393;28;45520;-59
2021/10/28 01:49:50;;;;;;;;;10.50;8.00;;;;;20.44;47.50;101304.88;5016787;28;53291;-60
2021/10/28 01:52:16;;;;;;;;;10.50;8.25;;;;;20.42;47.83;101304.91;4999200;28;46110;-60
2021/10/28 01:54:42;;;;;;;;;9.75;8.00;;;;;20.42;47.50;101298.81;5017533;28;45333;-59
2021/10/28 01:57:22;;;;;;;;;10.75;10.00;;;;;20.41;47.89;101299.72;5017914;28;45650;-59
2021/10/28 01:59:49;;;;;;;;;8.00;7.75;;;;;20.38;47.79;101296.31;5017033;28;46268;-60
2021/10/28 02:02:15;;;;;;;;;10.75;8.50;;;;;20.39;48.03;101292.75;5017229;28;45258;-60
2021/10/28 02:04:40;;;;;;;;;8.00;5.00;;;;;20.39;47.82;101292.75;4999365;28;45522;-58
2021/10/28 02:07:07;;;;;;;;;9.25;7.75;;;;;20.39;47.93;101287.50;5017563;28;45440;-58
2021/10/28 02:09:33;;;;;;;;;10.50;9.00;;;;;20.39;47.82;101286.66;5017028;28;47283;-59
2021/10/28 02:11:59;;;;;;;;;7.25;7.25;;;;;20.38;47.85;101285.78;5017044;28;45262;-59
2021/10/28 02:14:24;;;;;;;;;10.50;9.00;;;;;20.38;47.70;101279.69;5017153;28;45525;-59
2021/10/28 02:16:49;;;;;;;;;7.00;7.00;;;;;20.36;47.98;101279.72;5017216;28;45324;-59
2021/10/28 02:19:15;;;;;;;;;7.00;6.50;;;;;20.38;47.93;101275.25;5016695;28;45402;-59
2021/10/28 02:21:40;;;;;;;;;11.00;9.00;;;;;20.37;47.60;101268.28;5016504;28;45406;-60
2021/10/28 02:24:05;;;;;;;;;6.00;6.00;;;;;20.37;47.78;101265.66;5017266;28;45688;-60
2021/10/28 02:26:32;;;;;;;;;7.75;7.50;;;;;20.37;47.31;101260.38;5017205;28;45425;-59
2021/10/28 02:28:57;;;;;;;;;7.00;7.00;;;;;20.36;47.46;101265.72;5016584;28;46970;-61
2021/10/28 02:31:23;;;;;;;;;9.00;8.75;;;;;20.37;47.63;101257.75;5016384;28;45413;-60
2021/10/28 02:33:48;;;;;;;;;5.75;5.75;;;;;20.36;47.43;101258.66;5016529;28;45451;-61
2021/10/28 02:36:14;;;;;;;;;9.00;7.75;;;;;20.34;47.61;101247.34;5016962;28;45547;-60
2021/10/28 02:38:40;;;;;;;;;7.25;7.00;;;;;20.35;47.48;101243.81;5016778;28;45565;-60
2021/10/28 02:41:05;;;;;;;;;7.75;7.00;;;;;20.36;47.47;101242.03;5016880;28;45444;-60
2021/10/28 02:43:31;;;;;;;;;7.75;7.75;;;;;20.34;47.79;101231.56;5016811;28;45325;-60
2021/10/28 02:45:56;;;;;;;;;9.25;7.00;;;;;20.35;47.54;101240.31;5016479;28;45420;-59
2021/10/28 02:48:22;;;;;;;;;10.25;9.75;;;;;20.34;47.56;101241.25;5016390;28;45403;-60
2021/10/28 02:50:48;;;;;;;;;8.75;8.75;;;;;20.34;47.83;101239.47;5016146;28;45397;-60
2021/10/28 02:53:13;;;;;;;;;6.75;6.75;;;;;20.31;47.83;101226.47;5016536;28;45361;-61
2021/10/28 02:55:39;;;;;;;;;9.00;6.75;;;;;20.32;47.90;101233.44;5017113;28;45475;-60
2021/10/28 02:58:04;;;;;;;;;11.25;9.25;;;;;20.33;47.25;101240.41;5016241;28;46760;-61
2021/10/28 03:00:30;;;;;;;;;8.75;8.00;;;;;20.31;47.34;101242.25;4998438;28;45289;-61
2021/10/28 03:02:55;;;;;;;;;7.00;7.00;;;;;20.33;47.36;101247.44;5015438;28;45422;-61
2021/10/28 03:05:20;;;;;;;;;5.25;5.25;;;;;20.32;47.63;101237.84;5016678;28;45350;-61
2021/10/28 03:07:46;;;;;;;;;8.00;7.00;;;;;20.30;47.48;101237.06;5016220;28;46014;-61
2021/10/28 03:10:12;;;;;;;;;10.00;8.00;;;;;20.28;47.25;101231.03;5016525;28;45294;-62
2021/10/28 03:12:40;;;;;;;;;7.50;7.50;;;;;20.31;47.12;101230.88;5016411;28;45697;-61
2021/10/28 03:15:08;;;;;;;;;8.25;7.25;;;;;20.32;47.29;101227.31;5016266;28;45470;-61
2021/10/28 03:27:44;;;;;;;;;6.75;6.25;;;;;20.27;47.24;101206.47;5016084;28;46124;-60
2021/10/28 03:30:10;;;;;;;;;8.00;6.25;;;;;20.27;47.56;101211.75;5016057;28;45375;-60
2021/10/28 03:32:36;;;;;;;;;6.25;6.00;;;;;20.27;47.65;101218.78;4998187;28;45436;-60
2021/10/28 03:35:04;;;;;;;;;6.50;6.50;;;;;20.27;47.10;101209.09;5016143;28;45176;-60
2021/10/28 03:37:34;;;;;;;;;5.75;5.75;;;;;20.20;47.15;101192.75;5015780;28;45462;-60
2021/10/28 04:06:22;;;;;;;;;7.75;7.25;;;;;20.22;47.41;101169.84;5015759;28;45588;-59
2021/10/28 04:16:23;;;;;;;;;7.50;6.75;;;;;20.24;47.20;101175.91;5015480;28;46094;-59
2021/10/28 04:30:26;;;;;;;;;9.50;8.75;;;;;20.21;47.09;101175.19;5018922;28;46170;-61
2021/10/28 04:32:53;;;;;;;;;9.00;7.00;;;;;20.20;46.78;101182.22;5000454;28;45925;-59
2021/10/28 04:35:19;;;;;;;;;7.00;6.00;;;;;20.22;47.19;101176.91;5018749;28;45305;-60
2021/10/28 04:37:46;;;;;;;;;4.00;3.00;;;;;20.19;47.16;101180.53;5018848;28;45407;-59
2021/10/28 04:40:13;;;;;;;;;8.25;7.50;;;;;20.19;47.37;101171.78;5018536;28;45465;-59
2021/10/28 04:42:39;;;;;;;;;5.50;5.00;;;;;20.19;46.91;101177.06;5018496;28;45939;-61
2021/10/28 04:45:05;;;;;;;;;8.50;8.00;;;;;20.18;47.32;101177.97;5018322;28;45527;-61
2021/10/28 04:47:31;;;;;;;;;6.00;6.00;;;;;20.20;47.33;101189.28;5018476;28;45250;-60
2021/10/28 04:49:56;;;;;;;;;9.00;8.50;;;;;20.20;47.27;101184.03;5017991;28;45522;-61
2021/10/28 04:52:22;;;;;;;;;7.00;7.00;;;;;20.19;47.24;101180.53;5018335;28;45565;-60
2021/10/28 04:54:49;;;;;;;;;9.50;7.50;;;;;20.18;46.76;101185.88;5018504;28;45455;-59
2021/10/28 04:57:15;;;;;;;;;7.75;6.75;;;;;20.19;47.28;101184.94;5018773;28;45278;-59
2021/10/28 04:59:40;;;;;;;;;8.25;7.75;;;;;20.18;47.10;101176.19;5018065;28;46310;-59
2021/10/28 05:02:06;;;;;;;;;7.00;7.00;;;;;20.18;46.97;101183.25;5017859;28;45500;-60
2021/10/28 05:04:31;;;;;;;;;8.50;7.25;;;;;20.17;46.95;101171.00;5018016;28;45519;-60
2021/10/28 05:06:57;;;;;;;;;8.75;7.25;;;;;20.16;47.36;101182.44;5018376;28;45621;-61
2021/10/28 05:09:26;;;;;;;;;9.00;6.50;;;;;20.16;47.03;101174.56;5017923;28;45574;-59
2021/10/28 05:11:52;;;;;;;;;7.25;6.00;;;;;20.17;47.09;101171.88;5017711;28;45222;-60
2021/10/28 05:14:17;;;;;;;;;7.25;7.25;;;;;20.15;47.27;101178.97;5018289;28;45365;-59
2021/10/28 05:16:42;;;;;;;;;8.25;8.25;;;;;20.17;46.69;101176.25;5018211;28;45352;-60
2021/10/28 05:19:08;;;;;;;;;8.75;7.00;;;;;20.15;46.76;101176.34;4999835;28;47282;-59
2021/10/28 05:21:33;;;;;;;;;8.25;7.25;;;;;20.16;46.90;101166.66;5017974;28;45377;-58
2021/10/28 05:23:59;;;;;;;;;8.00;6.75;;;;;20.16;46.71;101167.53;5018050;28;45325;-59
2021/10/28 05:26:24;;;;;;;;;8.00;6.50;;;;;20.14;47.31;101166.75;5017328;28;45487;-60
2021/10/28 05:28:50;;;;;;;;;9.50;7.50;;;;;20.15;46.72;101178.13;5017790;28;45393;-60
2021/10/28 05:31:16;;;;;;;;;7.25;7.25;;;;;20.15;46.76;101180.75;5017563;28;45468;-59
2021/10/28 05:33:41;;;;;;;;;9.50;7.00;;;;;20.08;46.96;101172.28;5017811;28;45463;-59
2021/10/28 05:36:07;;;;;;;;;6.00;6.00;;;;;20.14;46.57;101176.41;5017960;28;45546;-60
2021/10/28 05:38:32;;;;;;;;;7.00;6.50;;;;;20.14;46.58;101181.66;5017502;28;45453;-59
2021/10/28 05:40:58;;;;;;;;;8.50;7.25;;;;;20.13;47.15;101179.97;5017471;28;45380;-60
2021/10/28 05:43:23;;;;;;;;;7.00;7.00;;;;;20.12;46.78;101178.28;5017690;28;45484;-61
2021/10/28 05:45:49;;;;;;;;;7.00;7.00;;;;;20.10;46.89;101174.88;4999903;28;45432;-59
2021/10/28 05:48:15;;;;;;;;;6.00;6.00;;;;;20.11;47.09;101176.56;5017382;28;45411;-60
2021/10/28 05:50:41;;;;;;;;;8.25;8.25;;;;;20.11;46.68;101176.56;5017222;28;45789;-60
2021/10/28 05:53:08;;;;;;;;;7.00;7.00;;;;;20.11;46.60;101176.56;5017609;28;45451;-59
2021/10/28 05:55:33;;;;;;;;;9.00;8.50;;;;;20.12;46.95;101175.66;5017512;28;45401;-59
2021/10/28 05:57:58;;;;;;;;;8.75;7.75;;;;;20.10;46.73;101165.19;4999423;28;47060;-60
2021/10/28 06:00:25;;;;;;;;;7.00;7.00;;;;;20.08;46.83;101165.25;5016914;28;45412;-60
2021/10/28 06:02:50;;;;;;;;;5.00;5.00;;;;;20.07;46.75;101166.19;5017391;28;45314;-60
2021/10/28 06:05:16;;;;;;;;;8.00;8.00;;;;;20.10;46.53;101174.88;4999684;28;45513;-61
2021/10/28 06:07:42;;;;;;;;;7.00;7.00;;;;;20.08;46.48;101172.28;5017003;28;46533;-60
2021/10/28 06:10:09;;;;;;;;;7.50;7.50;;;;;20.10;47.00;101173.06;5017152;28;45786;-60
2021/10/28 06:12:46;;;;;;;;;6.25;6.25;;;;;20.10;46.48;101175.69;5017204;28;45308;-60
2021/10/28 06:15:13;;;;;;;;;6.75;6.75;;;;;20.07;46.89;101174.09;5017068;28;45306;-60
2021/10/28 06:18:11;;;;;;;;;8.25;6.75;;;;;20.08;46.70;101161.75;5016901;28;46477;-60
2021/10/28 06:20:25;;;;;;;;;8.00;7.50;;;;;20.08;46.86;101173.16;5015194;28;45327;-60
2021/10/28 06:22:52;;;;;;;;;8.00;8.00;;;;;20.10;46.87;101172.25;5017325;28;45530;-59
2021/10/28 06:25:19;;;;;;;;;7.50;7.50;;;;;20.06;46.84;101161.84;4999492;28;45359;-59
2021/10/28 06:27:45;;;;;;;;;7.00;5.75;;;;;20.10;46.42;101166.97;5016843;28;46102;-59
2021/10/28 06:30:12;;;;;;;;;9.00;7.25;;;;;20.07;46.40;101163.56;5016707;28;45756;-59
2021/10/28 06:32:50;;;;;;;;;7.25;7.25;;;;;20.08;46.40;101167.03;5016778;28;45837;-59
2021/10/28 06:35:17;;;;;;;;;6.50;6.50;;;;;20.08;46.83;101177.56;5016986;28;45437;-59
2021/10/28 06:37:47;;;;;;;;;8.75;7.50;;;;;20.07;46.62;101179.34;5015150;28;46199;-59
2021/10/28 06:40:13;;;;;;;;;7.75;7.25;;;;;20.07;46.75;101178.47;4998346;28;45942;-59
2021/10/28 06:42:39;;;;;;;;;7.75;7.75;;;;;20.08;46.43;101178.41;5016744;28;45369;-59
2021/10/28 06:45:05;;;;;;;;;4.75;4.75;;;;;20.07;46.89;101175.84;5016928;28;45562;-58
2021/10/28 06:47:30;;;;;;;;;11.25;9.00;;;;;20.04;46.83;101182.13;5016225;28;46033;-59
2021/10/28 06:49:58;;;;;;;;;8.25;7.75;;;;;20.10;46.45;101182.75;5016469;28;45282;-49
2021/10/28 06:52:23;;;;;;;;;8.00;8.00;;;;;20.12;46.80;101183.53;5016585;28;45404;-47
2021/10/28 06:54:51;;;;;;;;;8.25;7.50;;;;;20.13;46.25;101185.22;5016838;28;45666;-61
2021/10/28 06:57:36;;;;;;;;;11.25;10.00;;;;;20.12;46.29;101187.00;5015605;28;45570;-60
2021/10/28 07:02:47;;;;;;;;;9.00;9.00;;;;;20.13;46.57;101185.22;5016067;28;45278;-52
2021/10/28 07:05:13;;;;;;;;;9.25;9.25;;;;;20.13;46.45;101186.09;5015340;28;45218;-57
2021/10/28 07:07:38;;;;;;;;;4.00;3.75;;;;;20.13;46.24;101179.97;4997036;28;45509;-57
2021/10/28 07:10:12;;;;;;;;;9.50;8.00;;;;;20.15;46.22;101180.75;5014888;28;45361;-57
2021/10/28 07:18:00;;;;;;;;;9.25;8.00;;;;;20.18;46.44;101177.97;5015833;28;45432;-58
2021/10/28 08:13:54;;;;;;;;;8.50;8.50;;;;;20.27;46.17;101169.63;5018174;28;45532;-48
2021/10/28 08:21:37;;;;;;;;;8.50;8.50;;;;;20.26;45.81;101165.28;5018428;28;46164;-46
2021/10/28 08:29:24;;;;;;;;;13.00;9.75;;;;;20.29;46.00;101165.16;5018829;28;45456;-50
2021/10/28 08:31:53;;;;;;;;;8.00;7.00;;;;;20.28;46.04;101158.16;5018728;28;47063;-50
2021/10/28 08:34:28;;;;;;;;;8.00;8.00;;;;;20.30;45.85;101161.59;5018278;28;45819;-51
2021/10/28 08:37:14;;;;;;;;;10.00;8.75;;;;;20.30;45.61;101169.47;5018620;28;45463;-52
2021/10/28 08:39:42;;;;;;;;;9.00;8.75;;;;;20.30;45.98;101161.59;5018345;28;45432;-54
2021/10/28 08:42:12;;;;;;;;;7.25;7.25;;;;;20.30;46.14;101161.59;5000322;28;46416;-50
2021/10/28 08:44:44;;;;;;;;;11.50;8.25;;;;;20.32;45.73;101154.47;5018045;28;45367;-52
2021/10/28 08:47:11;;;;;;;;;6.00;6.00;;;;;20.33;45.85;101157.94;5000354;28;45767;-53
2021/10/28 08:49:46;;;;;;;;;10.75;7.75;;;;;20.29;45.99;101144.09;5018413;28;45389;-53
2021/10/28 09:24:40;;;;;;;;;7.75;7.25;;;;;20.37;45.54;101107.69;5017571;28;45801;-52
2021/10/28 09:27:14;;;;;;;;;8.75;7.75;;;;;20.39;45.62;101105.00;5017496;28;45396;-58
2021/10/28 09:29:55;;;;;;;;;8.00;6.00;;;;;20.38;46.07;101098.88;5017506;28;45910;-54
2021/10/28 09:43:47;;;;;;;;;8.00;6.50;;;;;20.42;45.59;101088.19;5017690;28;45354;-50
2021/10/28 09:51:43;;;;;;;;;7.50;7.50;;;;;20.42;46.02;101096.09;5017108;28;45416;-52
2021/10/28 09:54:21;;;;;;;;;8.00;7.25;;;;;20.43;46.06;101092.53;5017613;28;45413;-49
2021/10/28 09:59:53;;;;;;;;;9.75;9.25;;;;;20.43;45.51;101087.28;5017213;28;45409;-47
2021/10/28 10:02:30;;;;;;;;;8.00;7.25;;;;;20.44;45.90;101075.81;4999308;28;45377;-45
2021/10/28 10:04:56;;;;;;;;;8.00;7.00;;;;;20.42;45.87;101080.28;5017107;28;45361;-52
2021/10/28 10:07:22;;;;;;;;;9.00;9.00;;;;;20.42;46.05;101081.13;5017118;28;46966;-56
2021/10/28 10:09:47;;;;;;;;;8.00;8.00;;;;;20.43;45.36;101077.56;4999045;28;45307;-59
2021/10/28 10:12:15;;;;;;;;;6.00;6.00;;;;;20.44;45.42;101073.19;5016748;28;45397;-49
2021/10/28 10:14:42;;;;;;;;;8.00;3.75;;;;;20.44;46.05;101062.66;5017078;28;45557;-58
2021/10/28 10:17:08;;;;;;;;;7.00;7.00;;;;;20.44;45.16;101052.13;5016965;28;46733;-56
2021/10/28 10:19:45;;;;;;;;;6.00;6.00;;;;;20.46;45.56;101055.50;5016746;28;45232;-61
2021/10/28 10:22:36;;;;;;;;;12.25;8.50;;;;;20.46;45.38;101050.22;5016705;28;45437;-55
2021/10/28 10:25:45;;;;;;;;;8.75;8.75;;;;;20.47;45.49;101049.31;5016395;28;45561;-55
2021/10/28 12:44:27;;;;;;;;;9.50;9.00;;;;;21.15;43.39;100819.94;5018502;28;45658;-62
2021/10/28 12:52:34;;;;;;;;;11.00;8.75;;;;;21.13;42.99;100810.41;5018483;28;45329;-60
2021/10/28 12:55:22;;;;;;;;;9.50;9.50;;;;;21.12;43.07;100795.53;5018503;28;46128;-62
2021/10/28 13:49:53;;;;;;;;;8.75;7.75;;;;;20.96;42.56;100721.81;5012836;28;45606;-61
2021/10/28 13:55:17;;;;;;;;;9.25;8.25;;;;;20.93;42.21;100708.84;5017302;28;45389;-51
2021/10/28 14:29:11;;;;;;;;;8.75;8.75;;;;;20.81;42.07;100691.97;5016213;28;45424;-54
2021/10/28 15:27:43;;;;;;;;;7.00;6.00;;;;;20.88;41.70;100659.06;5016071;28;45248;-50
2021/10/28 15:30:18;;;;;;;;;10.75;6.00;;;;;20.92;42.38;100650.03;5015897;28;45767;-55
2021/10/28 15:40:43;;;;;;;;;7.25;6.75;;;;;20.92;42.17;100631.56;5015635;28;45492;-49
2021/10/28 16:23:35;;;;;;;;;8.25;7.50;;;;;20.85;42.18;100585.47;5018726;28;45377;-60
2021/10/28 16:26:03;;;;;;;;;7.00;6.50;;;;;20.83;41.97;100579.47;5000915;28;45329;-64
2021/10/28 16:28:29;;;;;;;;;8.75;8.75;;;;;20.83;42.10;100580.31;5034395;28;45515;-65
2021/10/28 16:30:54;;;;;;;;;6.00;5.00;;;;;20.82;42.06;100572.50;5018445;28;46327;-60
2021/10/28 16:33:20;;;;;;;;;7.25;7.25;;;;;20.83;42.36;100576.81;5018499;28;45424;-62
2021/10/28 16:35:46;;;;;;;;;7.25;7.25;;;;;20.82;41.75;100575.13;5018244;28;45470;-61
2021/10/28 16:38:11;;;;;;;;;11.50;7.75;;;;;20.81;42.29;100576.06;5018853;28;45603;-55
2021/10/28 16:40:38;;;;;;;;;6.50;6.00;;;;;20.82;42.01;100567.22;5018643;28;45421;-57
2021/10/28 16:43:04;;;;;;;;;7.75;7.75;;;;;20.81;42.02;100563.75;5018331;28;45699;-58
2021/10/28 16:45:29;;;;;;;;;6.75;6.75;;;;;20.82;42.20;100567.22;5018844;28;45479;-49
2021/10/28 16:47:55;;;;;;;;;7.25;6.75;;;;;20.80;41.91;100569.97;5018628;28;45393;-62
2021/10/28 16:50:20;;;;;;;;;7.00;6.00;;;;;20.80;42.08;100559.44;5033415;28;46973;-63
2021/10/28 16:52:45;;;;;;;;;5.25;5.25;;;;;20.80;42.12;100563.81;5000594;28;45704;-50
2021/10/28 16:55:11;;;;;;;;;5.50;5.25;;;;;20.81;42.13;100560.25;5018527;28;45437;-49
2021/10/28 16:57:36;;;;;;;;;6.75;6.75;;;;;20.83;42.25;100558.38;5018668;28;45382;-56
2021/10/28 17:00:04;;;;;;;;;5.75;5.25;;;;;20.84;42.28;100549.53;5018075;28;46852;-61
2021/10/28 17:02:30;;;;;;;;;8.00;8.00;;;;;20.86;42.08;100550.31;5018346;28;45800;-59
2021/10/28 17:04:57;;;;;;;;;8.00;7.00;;;;;20.90;42.00;100559.69;5017979;28;45895;-61
2021/10/28 17:07:22;;;;;;;;;10.25;7.75;;;;;20.91;42.11;100561.38;5018288;28;45671;-63
2021/10/28 17:09:49;;;;;;;;;8.75;7.25;;;;;20.93;42.07;100570.03;5017683;28;46283;-61
2021/10/28 17:12:14;;;;;;;;;11.00;7.25;;;;;20.94;42.44;100566.47;5017317;28;45825;-63
2021/10/28 17:14:40;;;;;;;;;7.50;7.50;;;;;20.96;42.08;100569.00;5018116;28;45369;-61
2021/10/28 17:17:05;;;;;;;;;7.00;7.00;;;;;20.96;42.46;100566.38;5018167;28;45594;-65
2021/10/28 17:19:31;;;;;;;;;9.00;7.00;;;;;20.96;42.25;100564.59;5017582;28;45485;-63
2021/10/28 17:21:56;;;;;;;;;7.25;7.25;;;;;21.00;42.56;100566.09;5016555;28;45340;-57
2021/10/28 17:26:50;;;;;;;;;8.75;7.25;;;;;21.03;42.08;100574.75;5017805;28;45400;-51
2021/10/28 17:29:16;;;;;;;;;6.50;6.00;;;;;21.02;42.29;100568.66;4999716;28;47393;-52
2021/10/28 17:31:41;;;;;;;;;6.75;6.75;;;;;21.02;42.60;100563.38;5017503;28;45667;-48
2021/10/28 17:34:07;;;;;;;;;7.00;6.00;;;;;21.03;42.42;100564.22;5017731;28;45326;-63
2021/10/28 17:36:33;;;;;;;;;8.00;8.00;;;;;21.05;42.42;100570.25;5017763;28;45609;-45
2021/10/28 17:38:59;;;;;;;;;6.00;6.00;;;;;21.05;42.55;100563.19;5017400;28;46897;-62
2021/10/28 17:41:25;;;;;;;;;7.25;6.25;;;;;21.05;42.40;100563.19;5017372;28;45242;-58
2021/10/28 17:43:54;;;;;;;;;10.25;6.00;;;;;21.08;42.20;100568.25;5017639;28;45377;-50
2021/10/28 17:46:21;;;;;;;;;7.50;7.50;;;;;21.08;42.27;100562.97;5017423;28;45583;-57
2021/10/28 17:48:48;;;;;;;;;8.50;7.25;;;;;21.09;42.38;100566.47;5016988;28;45399;-60
2021/10/28 17:51:15;;;;;;;;;6.00;6.00;;;;;21.09;42.05;100564.69;5017100;28;45688;-61
2021/10/28 17:53:43;;;;;;;;;6.00;6.00;;;;;21.10;42.40;100565.53;5017548;28;45178;-62
2021/10/28 17:56:10;;;;;;;;;10.00;8.00;;;;;21.11;42.20;100562.81;5017762;28;45544;-58
2021/10/28 17:58:36;;;;;;;;;6.25;6.00;;;;;21.10;42.53;100555.00;5017097;28;45452;-62
2021/10/28 18:01:01;;;;;;;;;8.00;7.75;;;;;21.11;42.37;100564.59;5016850;28;45679;-59
2021/10/28 18:03:26;;;;;;;;;7.50;6.25;;;;;21.12;42.59;100561.84;5017061;28;45513;-59
2021/10/28 18:05:52;;;;;;;;;6.00;6.00;;;;;21.12;42.65;100558.34;5017272;28;45479;-59
2021/10/28 18:08:18;;;;;;;;;6.75;6.75;;;;;21.12;42.37;100558.34;5016985;28;46968;-55
2021/10/28 18:10:44;;;;;;;;;8.50;6.75;;;;;21.12;42.19;100558.34;4998486;28;45445;-47
2021/10/28 18:13:12;;;;;;;;;10.25;7.75;;;;;21.12;42.54;100551.31;5017190;28;45374;-62
2021/10/28 18:15:39;;;;;;;;;7.25;6.50;;;;;21.13;42.20;100553.00;4999189;28;45456;-56
2021/10/28 18:18:05;;;;;;;;;6.50;6.50;;;;;21.12;42.77;100553.09;5016709;28;46538;-57
2021/10/28 18:20:31;;;;;;;;;7.50;6.50;;;;;21.14;42.33;100546.81;5016989;28;45734;-52
2021/10/28 18:22:56;;;;;;;;;8.25;7.00;;;;;21.14;42.46;100548.56;5016765;28;45359;-56
2021/10/28 18:25:23;;;;;;;;;7.00;7.00;;;;;21.12;42.19;100551.31;5015042;28;45322;-55
2021/10/28 18:27:55;;;;;;;;;8.25;6.75;;;;;21.10;42.29;100550.56;5015576;28;47410;-56
2021/10/28 18:30:21;;;;;;;;;7.50;7.50;;;;;21.07;42.35;100544.66;5015108;28;46034;-52
2021/10/28 18:32:46;;;;;;;;;6.75;6.25;;;;;21.07;42.47;100544.66;5015593;28;45372;-52
2021/10/28 18:35:12;;;;;;;;;9.00;7.75;;;;;21.07;42.76;100544.66;5016425;28;45551;-53
2021/10/28 18:37:38;;;;;;;;;9.00;9.00;;;;;21.07;42.42;100545.47;5015431;28;46344;-47
2021/10/28 18:40:06;;;;;;;;;8.00;6.00;;;;;21.09;42.75;100542.75;5015885;28;45401;-49
2021/10/28 18:42:31;;;;;;;;;7.00;7.00;;;;;21.12;42.97;100545.19;5015614;28;45293;-57
2021/10/28 18:44:56;;;;;;;;;7.75;7.75;;;;;21.14;42.54;100532.75;5016009;28;45490;-52
2021/10/28 18:47:22;;;;;;;;;8.50;8.50;;;;;21.18;42.53;100531.66;4996824;28;49760;-47
2021/10/28 18:49:49;;;;;;;;;10.00;7.25;;;;;21.22;42.79;100529.66;5015686;28;45409;-46
2021/10/28 18:52:18;;;;;;;;;7.50;7.50;;;;;21.25;42.38;100527.66;5015149;28;45419;-49
2021/10/28 18:54:45;;;;;;;;;7.75;7.00;;;;;21.29;42.61;100526.53;5016261;28;45656;-44
2021/10/28 18:57:12;;;;;;;;;10.75;9.00;;;;;21.29;42.57;100518.63;4997938;28;46362;-45
2021/10/28 18:59:37;;;;;;;;;8.00;6.00;;;;;21.36;42.47;100518.22;5015238;28;46045;-49
2021/10/28 19:02:02;;;;;;;;;8.75;8.75;;;;;21.39;42.40;100521.50;5015605;28;45424;-47
2021/10/28 19:04:28;;;;;;;;;6.75;6.25;;;;;21.43;42.54;100514.28;5015420;28;45364;-45
2021/10/28 19:06:54;;;;;;;;;9.00;7.00;;;;;21.45;42.12;100515.84;5015081;28;46378;-45
2021/10/28 19:09:20;;;;;;;;;5.50;5.00;;;;;21.48;42.42;100512.16;5015101;28;45769;-52
2021/10/28 19:11:46;;;;;;;;;9.25;8.00;;;;;21.51;42.26;100511.97;5015513;28;45378;-53
2021/10/28 19:14:13;;;;;;;;;9.00;9.00;;;;;21.53;42.35;100511.88;5015579;28;45348;-49
2021/10/28 19:16:38;;;;;;;;;7.25;7.00;;;;;21.53;42.24;100503.97;5014971;28;46880;-50
2021/10/28 19:19:04;;;;;;;;;8.00;7.50;;;;;21.55;42.40;100507.34;5015144;28;45579;-45
2021/10/28 19:21:31;;;;;;;;;7.75;6.50;;;;;21.57;42.15;100508.09;5014745;28;45503;-47
2021/10/28 19:23:56;;;;;;;;;6.50;6.50;;;;;21.57;42.39;100505.47;5015431;28;45338;-46
2021/10/28 19:26:22;;;;;;;;;6.50;6.50;;;;;21.57;42.38;100501.03;5014536;28;45373;-53
2021/10/28 19:28:47;;;;;;;;;6.00;6.00;;;;;21.57;42.28;100498.38;5014946;28;45427;-49
2021/10/28 19:31:54;;;;;;;;;8.75;8.75;;;;;21.58;42.14;100496.59;5015335;28;45424;-51
2021/10/28 19:34:08;;;;;;;;;8.00;7.00;;;;;21.54;42.50;100490.69;5012179;28;45375;-57
2021/10/28 19:36:37;;;;;;;;;8.50;7.00;;;;;21.57;42.12;100495.75;5014440;28;45433;-47
2021/10/28 19:39:30;;;;;;;;;6.25;6.25;;;;;21.57;42.47;100479.91;5014835;28;45673;-53
2021/10/28 19:47:13;;;;;;;;;8.00;8.00;;;;;21.58;42.02;100476.34;5018637;28;46156;-50
2021/10/28 19:49:39;;;;;;;;;6.75;6.00;;;;;21.59;42.40;100472.78;5017979;28;45339;-56
2021/10/28 19:52:07;;;;;;;;;7.50;7.00;;;;;21.58;42.49;100471.06;5018363;28;45362;-51
2021/10/28 19:54:34;;;;;;;;;6.75;6.25;;;;;21.61;42.05;100467.41;5018374;28;45393;-53
2021/10/28 19:56:59;;;;;;;;;10.00;6.00;;;;;21.59;42.38;100467.53;5018141;28;45415;-55
2021/10/28 19:59:28;;;;;;;;;7.75;6.25;;;;;21.61;42.07;100467.41;5017926;28;45314;-54
2021/10/28 20:01:59;;;;;;;;;7.75;6.75;;;;;21.61;42.37;100475.31;5018193;28;45382;-56
2021/10/28 20:04:50;;;;;;;;;7.50;6.25;;;;;21.61;42.10;100475.31;5018077;28;45463;-54
2021/10/28 20:07:24;;;;;;;;;8.25;8.25;;;;;21.60;41.92;100460.47;5017699;28;46134;-55
2021/10/28 20:21:03;;;;;;;;;8.50;7.00;;;;;21.57;42.14;100466.72;4937197;28;45516;-52
2021/10/28 20:23:28;;;;;;;;;7.50;7.00;;;;;21.58;42.03;100470.25;5000950;28;46049;-49
2021/10/28 20:25:55;;;;;;;;;8.50;6.00;;;;;21.57;42.16;100461.47;5018183;28;45355;-48
2021/10/28 20:28:20;;;;;;;;;7.00;7.00;;;;;21.55;42.10;100462.53;5017552;28;46133;-51
2021/10/28 20:30:55;;;;;;;;;7.75;6.25;;;;;21.56;42.02;100465.03;5017785;28;45305;-45